Aviation Digital Data Service (ADDS)

Output produced by METARs form (2058 UTC 29 May 2017)
found at http://www.aviationweather.gov/adds/metars/
 
KRAP 291720Z 2918/3018 35020G30KT P6SM FEW060 
     FM300200 31008KT P6SM FEW250
       
KRBG 291749Z 2918/3018 35005KT P6SM OVC012 
     FM292000 01004KT P6SM SCT015 
     FM292200 35007G14KT P6SM VCTS SCT040CB OVC060 
     FM300700 01006KT P6SM OVC030 
     FM301000 35007KT P6SM OVC012 
     FM301200 36006KT P6SM OVC015
       
KRBL 291722Z 2918/3018 VRB04KT P6SM SKC 
     FM292300 16008KT P6SM SKC
       
TAF KRCA 290300Z 2903/3009 31009KT 9999 SCT060 QNH3001INS 
     TEMPO 2903/2904 32025G37KT 510003 
     BECMG 2913/2914 32015G25KT 9999 FEW060 QNH3007INS 
     TEMPO 2916/2922 32025G35KT 510003 
     BECMG 3001/3002 30012KT 9999 FEW080 QNH3010INS TX20/2922Z TN07/2911Z LAST NO AMDS AFT 2903 NEXT 3003
       
KRDD 291722Z 2918/3018 VRB03KT P6SM SKC 
     FM300000 18008KT P6SM SKC
       
KRDG 291721Z 2918/3018 12003KT 6SM BR OVC010 
     FM291900 13004KT P6SM BKN015 
     FM300100 13005KT 4SM BR OVC012 
     FM300400 12003KT 4SM BR OVC006 
     TEMPO 3008/3011 2SM BR OVC003 
     FM301500 11004KT 2SM BR OVC007
       
KRDM 292042Z 2921/3018 01010KT P6SM FEW080 SCT100 BKN150 
     TEMPO 2922/3002 VRB10G20KT SHRA BKN070 BKN100 
     FM300900 18005KT P6SM SCT140 BKN200
       
KRDU 291951Z 2920/3018 28005KT P6SM FEW060 SCT250 
     FM292330 VRB03KT P6SM VCTS BKN040CB 
     TEMPO 3000/3003 VRB20G30KT 2SM +SHRA BKN040 
     FM300300 24004KT P6SM SCT040 BKN100 BKN250
       
KRIC 291739Z 2918/3018 28004KT P6SM SCT040 
     FM292100 VRB03KT P6SM BKN045 
     FM300200 11005KT P6SM SCT150 
     FM300400 11005KT P6SM BKN080 
     FM300900 VRB03KT P6SM BKN025 
     FM301400 VRB03KT P6SM SCT020
       
KRIL 291736Z 2918/3018 00000KT P6SM FEW250 
     FM292300 29007KT P6SM SCT250 
     FM300300 13005KT P6SM FEW250 
     FM300800 VRB03KT P6SM FEW250
       
TAF KRIV 292001Z 2920/3102 31009KT 9999 FEW150 BKN250 QNH2984INS 
     TEMPO 2921/3002 31012G18KT 
     BECMG 3002/3003 30006KT 9999 SCT250 QNH2986INS 
     BECMG 3011/3012 30006KT 6000 BR BKN005 QNH2987INS 
     BECMG 3014/3015 30006KT 9999 NSW SCT008 SCT250 QNH2989INS 
     BECMG 3018/3019 31009KT 9999 SCT250 QNH2984INS 
     TEMPO 3021/3102 31012G18KT TX30/2922Z TN11/3013Z
       
KRIW 291727Z 2918/3018 VRB05KT P6SM SCT050 
     FM292200 VRB10G18KT P6SM VCTS BKN060CB 
     FM300300 VRB05KT P6SM SCT090
       
KRKD 291735Z 2918/3018 11009G16KT P6SM OVC008 
     FM292200 10006KT 4SM -SHRA BR OVC005 
     FM300400 09004KT 1SM -DZ BR OVC003 
     FM301400 15007KT P6SM OVC008
       
KRKS 291727Z 2918/3018 07009KT P6SM SCT080 
     FM292300 08008KT P6SM BKN090 
     FM300400 08007KT P6SM SCT100
       
KRME 291727Z 2918/3018 13010KT P6SM BKN022 OVC035 
     TEMPO 2918/2921 3SM SHRA BR 
     FM292100 12007KT P6SM BKN035 
     FM300300 12005KT P6SM SCT035 
     FM300800 12005KT 5SM BR OVC015 
     FM301500 14008KT 4SM SHRA BR OVC025
       
KRNO 291720Z 2918/3018 VRB04KT P6SM SCT250 
     FM292000 16007KT P6SM FEW070 SCT200 
     FM300000 29010G17KT P6SM SCT090 BKN200 
     FM300500 VRB03KT P6SM FEW120 BKN180
       
KROA 291723Z 2918/3018 31008KT P6SM SCT060 
     FM292100 27005KT P6SM SCT090 
     FM301400 VRB03KT P6SM SCT200
       
KROC 291730Z 2918/3018 28014G21KT P6SM SCT022 BKN035 BKN080 
     FM292200 24011G18KT P6SM FEW250 
     FM300300 19008KT P6SM BKN110 
     FM300600 18010G17KT P6SM VCSH BKN070 
     FM301500 21009KT P6SM VCSH BKN060 
     FM301700 21011G19KT P6SM SCT060
       
KROG 291720Z 2918/3018 25007KT P6SM SCT250 
     FM300300 VRB03KT P6SM SCT250 
     FM301500 22008KT P6SM BKN250
       
KROW 291726Z 2918/3018 16010G17KT P6SM SCT130 
     FM292300 16013G21KT P6SM VCSH BKN100 
     FM300200 08008KT P6SM SCT100 
     FM300800 16010KT P6SM SCT130 
     FM301100 16010KT P6SM SCT025 SCT130
       
KRSL 291720Z 2918/3018 35010KT P6SM FEW250 
     FM300000 VRB03KT P6SM SCT200 
     FM300800 23005KT P6SM SCT200 
     FM301500 27005KT P6SM SCT200
       
KRST 292015Z 2920/3018 29018G26KT P6SM VCSH SCT030 BKN045 
     TEMPO 2920/2923 29028G38KT -SHRA 
     FM300100 29011KT P6SM BKN070 
     FM301400 29011G20KT P6SM SCT040 
     FM301500 29012G22KT P6SM SCT025 BKN040
       
KRSW 291720Z 2918/3018 27008KT P6SM SCT050 
     FM300200 VRB03KT P6SM FEW030 
     FM301500 18006KT P6SM FEW035 SCT250
       
KRUT 291740Z 2918/3018 17006KT P6SM -RA SCT010 OVC025 
     TEMPO 2919/2923 4SM -SHRA BR OVC010 
     FM300000 14006KT P6SM OVC025 
     FM300200 13009KT P6SM BKN030
       
KRVS 291720Z 2918/3018 30005KT P6SM SCT250 
     FM300300 00000KT P6SM SCT250 
     FM301500 20006KT P6SM BKN250
       
KRWI 291720Z 2918/3018 28008KT P6SM SCT040 SCT250 
     FM300100 VRB06KT P6SM VCTS BKN040CB 
     TEMPO 3001/3005 VRB25G35KT 2SM +SHRA BKN040 
     FM300900 VRB03KT P6SM BKN250
       
KRWL 291721Z 2918/3018 34007KT P6SM SCT045 SCT080 
     FM300100 03007KT P6SM SCT080 
     FM301500 24006KT P6SM SCT080
       
KRYY 291727Z 2918/3018 28007KT P6SM BKN050 BKN100 
     TEMPO 2920/2924 VRB10G18KT 4SM -TSRA BR BKN025CB 
     FM300000 29005KT P6SM VCTS SCT050CB BKN120 
     FM300300 27002KT P6SM BKN050 
     FM301200 26004KT P6SM BKN015 
     FM301600 26007KT P6SM BKN025 
     PROB30 3017/3018 4SM -TSRA BKN020CB